North River — WYR2549 — position and weather

sailwx.info

Track history (hours):
 
Tides and Currents Weather Stations Pressure Air Temp Water Temp Dewpoint Dewpoint Depression Visibility Wind Speed Wind Dir Waves Ship Positions

North River

Owner: CITY OF NEW YORK, Brooklyn, NY. More information available from US FCC via Universal Licensing System and Coast Guard Vessel Documentation Center.

Last reported at 2015-Feb-26 23:11 UTC. Time now 2015-Feb-27 13:15 UTC.
Position N 40°48' W 073°54'.

Length 78 m.

Type: Tanker. MMSI: 367074110.

Date/timePositionNaut miles runAvg speedWind from/ knotsBaromVisibWave heightAir tempDewpointWater temp
2015-Feb-26 23:11N 40°48' W 073°54'710.3
2015-Feb-26 22:33N 40°43' W 073°59'9 8.1
2015-Feb-26 21:28N 40°34' W 073°57'6 1.2
2015-Feb-26 16:25N 40°35' W 073°50'1 0.6
2015-Feb-26 15:16N 40°35' W 073°51'9 7.6
2015-Feb-26 14:03N 40°37' W 074°03'913.7
2015-Feb-26 13:26N 40°44' W 073°58'4 4.7
2015-Feb-26 12:31N 40°47' W 073°54'  
2015-Feb-19 22:33N 40°46' W 073°57'1010.5
2015-Feb-19 21:33N 40°39' W 074°07'0 0.1
2015-Feb-19 20:33N 40°38' W 074°08'0 0.0
2015-Feb-19 19:31N 40°38' W 074°08'0 0.0
2015-Feb-19 18:23N 40°39' W 074°08'8 9.5
2015-Feb-19 17:34N 40°45' W 074°01'1 0.3
2015-Feb-19 14:33N 40°45' W 074°01'5 4.8
2015-Feb-19 13:29N 40°48' W 073°55'1 0.1
2015-Feb-18 21:32N 40°47' W 073°55'3 2.8
2015-Feb-18 20:25N 40°49' W 073°58'6 0.9
2015-Feb-18 14:33N 40°45' W 074°01'6 6.2
2015-Feb-18 13:33N 40°47' W 073°54'0 0.4
2015-Feb-18 12:31N 40°47' W 073°54'1 0.1
2015-Feb-17 21:25N 40°48' W 073°53'0 0.0
2015-Feb-17 20:24N 40°48' W 073°53'2 2.3
2015-Feb-17 19:32N 40°47' W 073°55'10 4.9
2015-Feb-17 17:34N 40°39' W 074°02'0 0.0
2015-Feb-17 16:34N 40°39' W 074°02'9 8.7
2015-Feb-17 15:30N 40°47' W 073°56'  
Track history (hours):
 
Tides and Currents Weather Stations Pressure Air Temp Water Temp Dewpoint Dewpoint Depression Visibility Wind Speed Wind Dir Waves Ship Positions

North River

Owner: CITY OF NEW YORK, Brooklyn, NY. More information available from US FCC via Universal Licensing System and Coast Guard Vessel Documentation Center.

Last reported at 2015-Feb-26 23:11 UTC. Time now 2015-Feb-27 13:15 UTC.
Position N 40°48' W 073°54'.

Length 78 m.

Type: Tanker. MMSI: 367074110.

Date/timePositionNaut miles runAvg speedWind from/ knotsBaromVisibWave heightAir tempDewpointWater temp
2015-Feb-26 23:11N 40°48' W 073°54'710.3
2015-Feb-26 22:33N 40°43' W 073°59'9 8.1
2015-Feb-26 21:28N 40°34' W 073°57'6 1.2
2015-Feb-26 16:25N 40°35' W 073°50'1 0.6
2015-Feb-26 15:16N 40°35' W 073°51'9 7.6
2015-Feb-26 14:03N 40°37' W 074°03'913.7
2015-Feb-26 13:26N 40°44' W 073°58'4 4.7
2015-Feb-26 12:31N 40°47' W 073°54'  
2015-Feb-19 22:33N 40°46' W 073°57'1010.5
2015-Feb-19 21:33N 40°39' W 074°07'0 0.1
2015-Feb-19 20:33N 40°38' W 074°08'0 0.0
2015-Feb-19 19:31N 40°38' W 074°08'0 0.0
2015-Feb-19 18:23N 40°39' W 074°08'8 9.5
2015-Feb-19 17:34N 40°45' W 074°01'1 0.3
2015-Feb-19 14:33N 40°45' W 074°01'5 4.8
2015-Feb-19 13:29N 40°48' W 073°55'1 0.1
2015-Feb-18 21:32N 40°47' W 073°55'3 2.8
2015-Feb-18 20:25N 40°49' W 073°58'6 0.9
2015-Feb-18 14:33N 40°45' W 074°01'6 6.2
2015-Feb-18 13:33N 40°47' W 073°54'0 0.4
2015-Feb-18 12:31N 40°47' W 073°54'1 0.1
2015-Feb-17 21:25N 40°48' W 073°53'0 0.0
2015-Feb-17 20:24N 40°48' W 073°53'2 2.3
2015-Feb-17 19:32N 40°47' W 073°55'10 4.9
2015-Feb-17 17:34N 40°39' W 074°02'0 0.0
2015-Feb-17 16:34N 40°39' W 074°02'9 8.7
2015-Feb-17 15:30N 40°47' W 073°56'  

Dump ship's entire track history